sensor_id;sensor_type;location;lat;lon;timestamp;P1;durP1;ratioP1;P2;durP2;ratioP2
60018;SDS011;45870;42.528;26.740;2023-08-20T00:01:22;15.88;;;12.25;;
60018;SDS011;45870;42.528;26.740;2023-08-20T00:03:52;16.95;;;11.23;;
60018;SDS011;45870;42.528;26.740;2023-08-20T00:06:19;15.32;;;11.52;;
60018;SDS011;45870;42.528;26.740;2023-08-20T00:08:47;14.77;;;11.93;;
60018;SDS011;45870;42.528;26.740;2023-08-20T00:11:13;14.90;;;12.10;;
60018;SDS011;45870;42.528;26.740;2023-08-20T00:13:40;13.25;;;11.85;;
60018;SDS011;45870;42.528;26.740;2023-08-20T00:16:06;15.05;;;11.93;;
60018;SDS011;45870;42.528;26.740;2023-08-20T00:18:32;16.05;;;12.15;;
60018;SDS011;45870;42.528;26.740;2023-08-20T00:21:01;16.77;;;12.90;;
60018;SDS011;45870;42.528;26.740;2023-08-20T00:23:28;16.38;;;12.18;;
60018;SDS011;45870;42.528;26.740;2023-08-20T00:25:53;16.63;;;11.85;;
60018;SDS011;45870;42.528;26.740;2023-08-20T00:28:20;17.52;;;12.68;;
60018;SDS011;45870;42.528;26.740;2023-08-20T00:30:46;15.63;;;11.82;;
60018;SDS011;45870;42.528;26.740;2023-08-20T00:33:12;14.25;;;11.82;;
60018;SDS011;45870;42.528;26.740;2023-08-20T00:35:38;17.55;;;11.60;;
60018;SDS011;45870;42.528;26.740;2023-08-20T00:38:04;15.80;;;11.55;;
60018;SDS011;45870;42.528;26.740;2023-08-20T00:40:30;13.20;;;11.77;;
60018;SDS011;45870;42.528;26.740;2023-08-20T00:42:56;15.10;;;11.43;;
60018;SDS011;45870;42.528;26.740;2023-08-20T00:45:22;14.07;;;11.27;;
60018;SDS011;45870;42.528;26.740;2023-08-20T00:47:48;15.15;;;12.00;;
60018;SDS011;45870;42.528;26.740;2023-08-20T00:50:14;15.85;;;11.65;;
60018;SDS011;45870;42.528;26.740;2023-08-20T00:52:41;13.85;;;11.73;;
60018;SDS011;45870;42.528;26.740;2023-08-20T00:55:07;19.27;;;12.50;;
60018;SDS011;45870;42.528;26.740;2023-08-20T00:57:35;15.70;;;13.05;;
60018;SDS011;45870;42.528;26.740;2023-08-20T01:00:02;14.98;;;12.07;;
60018;SDS011;45870;42.528;26.740;2023-08-20T01:02:32;14.07;;;11.82;;
60018;SDS011;45870;42.528;26.740;2023-08-20T01:04:59;15.70;;;12.50;;
60018;SDS011;45870;42.528;26.740;2023-08-20T01:07:28;19.73;;;13.13;;
60018;SDS011;45870;42.528;26.740;2023-08-20T01:12:29;17.90;;;13.07;;
60018;SDS011;45870;42.528;26.740;2023-08-20T01:14:56;17.92;;;13.02;;
60018;SDS011;45870;42.528;26.740;2023-08-20T01:17:21;16.40;;;11.68;;
60018;SDS011;45870;42.528;26.740;2023-08-20T01:19:47;16.63;;;11.75;;
60018;SDS011;45870;42.528;26.740;2023-08-20T01:23:02;14.13;;;11.65;;
60018;SDS011;45870;42.528;26.740;2023-08-20T01:28:24;14.10;;;11.77;;
60018;SDS011;45870;42.528;26.740;2023-08-20T01:30:53;16.70;;;12.15;;
60018;SDS011;45870;42.528;26.740;2023-08-20T01:33:23;17.23;;;12.77;;
60018;SDS011;45870;42.528;26.740;2023-08-20T01:35:50;16.20;;;12.85;;
60018;SDS011;45870;42.528;26.740;2023-08-20T01:38:17;17.33;;;13.50;;
60018;SDS011;45870;42.528;26.740;2023-08-20T01:40:42;16.23;;;13.73;;
60018;SDS011;45870;42.528;26.740;2023-08-20T01:43:08;18.75;;;13.52;;
60018;SDS011;45870;42.528;26.740;2023-08-20T01:45:34;15.00;;;12.93;;
60018;SDS011;45870;42.528;26.740;2023-08-20T01:47:59;18.58;;;12.88;;
60018;SDS011;45870;42.528;26.740;2023-08-20T01:50:25;19.17;;;14.30;;
60018;SDS011;45870;42.528;26.740;2023-08-20T01:52:51;17.15;;;13.32;;
60018;SDS011;45870;42.528;26.740;2023-08-20T01:55:16;19.15;;;14.05;;
60018;SDS011;45870;42.528;26.740;2023-08-20T01:57:42;18.58;;;14.30;;
60018;SDS011;45870;42.528;26.740;2023-08-20T02:00:08;16.95;;;13.95;;
60018;SDS011;45870;42.528;26.740;2023-08-20T02:02:34;19.48;;;14.25;;
60018;SDS011;45870;42.528;26.740;2023-08-20T02:05:02;20.23;;;13.95;;
60018;SDS011;45870;42.528;26.740;2023-08-20T02:07:28;18.00;;;13.68;;
60018;SDS011;45870;42.528;26.740;2023-08-20T02:09:53;16.58;;;13.30;;
60018;SDS011;45870;42.528;26.740;2023-08-20T02:12:19;20.83;;;13.23;;
60018;SDS011;45870;42.528;26.740;2023-08-20T02:14:44;15.50;;;13.23;;
60018;SDS011;45870;42.528;26.740;2023-08-20T02:17:10;20.95;;;13.73;;
60018;SDS011;45870;42.528;26.740;2023-08-20T02:19:37;16.38;;;13.50;;
60018;SDS011;45870;42.528;26.740;2023-08-20T02:22:03;15.43;;;12.57;;
60018;SDS011;45870;42.528;26.740;2023-08-20T02:24:29;16.15;;;13.02;;
60018;SDS011;45870;42.528;26.740;2023-08-20T02:26:54;19.50;;;13.93;;
60018;SDS011;45870;42.528;26.740;2023-08-20T02:29:20;17.85;;;13.80;;
60018;SDS011;45870;42.528;26.740;2023-08-20T02:31:45;20.15;;;13.30;;
60018;SDS011;45870;42.528;26.740;2023-08-20T02:34:11;14.40;;;12.00;;
60018;SDS011;45870;42.528;26.740;2023-08-20T02:36:37;14.70;;;12.23;;
60018;SDS011;45870;42.528;26.740;2023-08-20T02:39:02;16.13;;;11.82;;
60018;SDS011;45870;42.528;26.740;2023-08-20T02:41:32;16.00;;;12.35;;
60018;SDS011;45870;42.528;26.740;2023-08-20T02:44:01;16.50;;;12.55;;
60018;SDS011;45870;42.528;26.740;2023-08-20T02:46:30;18.27;;;12.75;;
60018;SDS011;45870;42.528;26.740;2023-08-20T02:48:55;18.08;;;13.60;;
60018;SDS011;45870;42.528;26.740;2023-08-20T02:51:21;16.23;;;13.45;;
60018;SDS011;45870;42.528;26.740;2023-08-20T02:53:47;18.70;;;12.75;;
60018;SDS011;45870;42.528;26.740;2023-08-20T02:56:14;14.63;;;13.02;;
60018;SDS011;45870;42.528;26.740;2023-08-20T02:58:40;18.75;;;13.63;;
60018;SDS011;45870;42.528;26.740;2023-08-20T03:01:05;14.90;;;12.90;;
60018;SDS011;45870;42.528;26.740;2023-08-20T03:03:31;15.18;;;12.73;;
60018;SDS011;45870;42.528;26.740;2023-08-20T03:05:56;15.95;;;13.38;;
60018;SDS011;45870;42.528;26.740;2023-08-20T03:08:22;15.23;;;13.20;;
60018;SDS011;45870;42.528;26.740;2023-08-20T03:10:48;15.60;;;13.23;;
60018;SDS011;45870;42.528;26.740;2023-08-20T03:13:13;17.00;;;13.25;;
60018;SDS011;45870;42.528;26.740;2023-08-20T03:15:39;19.98;;;13.32;;
60018;SDS011;45870;42.528;26.740;2023-08-20T03:18:05;15.85;;;13.20;;
60018;SDS011;45870;42.528;26.740;2023-08-20T03:20:31;15.80;;;13.40;;
60018;SDS011;45870;42.528;26.740;2023-08-20T03:22:57;21.45;;;14.38;;
60018;SDS011;45870;42.528;26.740;2023-08-20T03:25:23;16.38;;;13.00;;
60018;SDS011;45870;42.528;26.740;2023-08-20T03:27:49;19.65;;;13.07;;
60018;SDS011;45870;42.528;26.740;2023-08-20T03:30:15;14.88;;;12.80;;
60018;SDS011;45870;42.528;26.740;2023-08-20T03:32:41;15.82;;;13.02;;
60018;SDS011;45870;42.528;26.740;2023-08-20T03:35:07;17.42;;;12.55;;
60018;SDS011;45870;42.528;26.740;2023-08-20T03:37:32;16.25;;;12.77;;
60018;SDS011;45870;42.528;26.740;2023-08-20T03:39:58;16.48;;;12.73;;
60018;SDS011;45870;42.528;26.740;2023-08-20T03:42:24;17.67;;;12.77;;
60018;SDS011;45870;42.528;26.740;2023-08-20T03:44:50;13.77;;;12.25;;
60018;SDS011;45870;42.528;26.740;2023-08-20T03:47:16;14.95;;;11.93;;
60018;SDS011;45870;42.528;26.740;2023-08-20T03:49:48;15.20;;;11.65;;
60018;SDS011;45870;42.528;26.740;2023-08-20T03:52:14;14.70;;;10.88;;
60018;SDS011;45870;42.528;26.740;2023-08-20T03:54:40;16.13;;;11.45;;
60018;SDS011;45870;42.528;26.740;2023-08-20T03:57:05;12.43;;;10.13;;
60018;SDS011;45870;42.528;26.740;2023-08-20T03:59:31;11.38;;;9.43;;
60018;SDS011;45870;42.528;26.740;2023-08-20T04:01:57;18.02;;;9.73;;
60018;SDS011;45870;42.528;26.740;2023-08-20T04:04:23;15.65;;;9.63;;
60018;SDS011;45870;42.528;26.740;2023-08-20T04:06:48;9.60;;;8.60;;
60018;SDS011;45870;42.528;26.740;2023-08-20T04:09:15;9.95;;;8.35;;
60018;SDS011;45870;42.528;26.740;2023-08-20T04:11:41;12.20;;;8.50;;
60018;SDS011;45870;42.528;26.740;2023-08-20T04:14:07;9.95;;;8.32;;
60018;SDS011;45870;42.528;26.740;2023-08-20T04:16:33;9.63;;;8.25;;
60018;SDS011;45870;42.528;26.740;2023-08-20T04:18:58;12.93;;;8.38;;
60018;SDS011;45870;42.528;26.740;2023-08-20T04:21:24;9.02;;;7.63;;
60018;SDS011;45870;42.528;26.740;2023-08-20T04:23:50;11.10;;;7.38;;
60018;SDS011;45870;42.528;26.740;2023-08-20T04:26:15;8.82;;;7.93;;
60018;SDS011;45870;42.528;26.740;2023-08-20T04:28:41;9.23;;;7.45;;
60018;SDS011;45870;42.528;26.740;2023-08-20T04:31:06;8.63;;;7.72;;
60018;SDS011;45870;42.528;26.740;2023-08-20T04:33:32;10.38;;;7.40;;
60018;SDS011;45870;42.528;26.740;2023-08-20T04:35:58;9.52;;;7.35;;
60018;SDS011;45870;42.528;26.740;2023-08-20T04:38:23;8.55;;;7.05;;
60018;SDS011;45870;42.528;26.740;2023-08-20T04:40:49;9.63;;;7.15;;
60018;SDS011;45870;42.528;26.740;2023-08-20T04:43:15;10.23;;;7.30;;
60018;SDS011;45870;42.528;26.740;2023-08-20T04:45:41;9.00;;;6.68;;
60018;SDS011;45870;42.528;26.740;2023-08-20T04:48:07;8.57;;;6.88;;
60018;SDS011;45870;42.528;26.740;2023-08-20T04:50:33;8.95;;;6.43;;
60018;SDS011;45870;42.528;26.740;2023-08-20T04:52:59;10.80;;;6.68;;
60018;SDS011;45870;42.528;26.740;2023-08-20T04:55:26;8.02;;;6.78;;
60018;SDS011;45870;42.528;26.740;2023-08-20T04:57:52;8.38;;;6.70;;
60018;SDS011;45870;42.528;26.740;2023-08-20T05:00:18;8.95;;;6.57;;
60018;SDS011;45870;42.528;26.740;2023-08-20T05:02:43;9.18;;;5.97;;
60018;SDS011;45870;42.528;26.740;2023-08-20T05:05:10;8.32;;;5.95;;
60018;SDS011;45870;42.528;26.740;2023-08-20T05:07:36;8.15;;;5.68;;
60018;SDS011;45870;42.528;26.740;2023-08-20T05:10:01;8.60;;;5.85;;
60018;SDS011;45870;42.528;26.740;2023-08-20T05:12:27;9.52;;;5.85;;
60018;SDS011;45870;42.528;26.740;2023-08-20T05:14:53;8.57;;;6.00;;
60018;SDS011;45870;42.528;26.740;2023-08-20T05:17:19;9.95;;;5.15;;
60018;SDS011;45870;42.528;26.740;2023-08-20T05:19:45;6.60;;;5.20;;
60018;SDS011;45870;42.528;26.740;2023-08-20T05:22:10;6.43;;;5.43;;
60018;SDS011;45870;42.528;26.740;2023-08-20T05:24:37;7.78;;;5.68;;
60018;SDS011;45870;42.528;26.740;2023-08-20T05:27:11;5.25;;;4.75;;
60018;SDS011;45870;42.528;26.740;2023-08-20T05:29:42;9.45;;;5.07;;
60018;SDS011;45870;42.528;26.740;2023-08-20T05:32:08;6.03;;;5.20;;
60018;SDS011;45870;42.528;26.740;2023-08-20T05:34:34;8.93;;;5.45;;
60018;SDS011;45870;42.528;26.740;2023-08-20T05:37:00;7.60;;;4.90;;
60018;SDS011;45870;42.528;26.740;2023-08-20T05:39:26;6.25;;;5.05;;
60018;SDS011;45870;42.528;26.740;2023-08-20T05:41:55;7.78;;;4.75;;
60018;SDS011;45870;42.528;26.740;2023-08-20T05:44:21;7.72;;;4.72;;
60018;SDS011;45870;42.528;26.740;2023-08-20T05:46:47;8.00;;;5.00;;
60018;SDS011;45870;42.528;26.740;2023-08-20T05:49:15;7.10;;;5.25;;
60018;SDS011;45870;42.528;26.740;2023-08-20T05:51:42;7.22;;;5.15;;
60018;SDS011;45870;42.528;26.740;2023-08-20T05:54:08;8.32;;;5.30;;
60018;SDS011;45870;42.528;26.740;2023-08-20T05:56:33;7.43;;;5.30;;
60018;SDS011;45870;42.528;26.740;2023-08-20T05:58:59;13.00;;;5.28;;
60018;SDS011;45870;42.528;26.740;2023-08-20T06:01:25;7.05;;;5.00;;
60018;SDS011;45870;42.528;26.740;2023-08-20T06:03:50;5.57;;;4.97;;
60018;SDS011;45870;42.528;26.740;2023-08-20T06:06:16;10.93;;;5.35;;
60018;SDS011;45870;42.528;26.740;2023-08-20T06:08:41;6.13;;;5.30;;
60018;SDS011;45870;42.528;26.740;2023-08-20T06:11:07;10.07;;;5.25;;
60018;SDS011;45870;42.528;26.740;2023-08-20T06:13:33;6.50;;;4.22;;
60018;SDS011;45870;42.528;26.740;2023-08-20T06:15:58;5.80;;;4.57;;
60018;SDS011;45870;42.528;26.740;2023-08-20T06:18:24;6.10;;;4.97;;
60018;SDS011;45870;42.528;26.740;2023-08-20T06:20:49;8.30;;;4.40;;
60018;SDS011;45870;42.528;26.740;2023-08-20T06:23:16;5.80;;;4.68;;
60018;SDS011;45870;42.528;26.740;2023-08-20T06:25:41;14.77;;;4.93;;
60018;SDS011;45870;42.528;26.740;2023-08-20T06:28:08;5.72;;;4.05;;
60018;SDS011;45870;42.528;26.740;2023-08-20T06:30:35;5.63;;;4.60;;
60018;SDS011;45870;42.528;26.740;2023-08-20T06:33:01;4.78;;;4.20;;
60018;SDS011;45870;42.528;26.740;2023-08-20T06:35:27;4.68;;;4.05;;
60018;SDS011;45870;42.528;26.740;2023-08-20T06:37:53;5.40;;;4.20;;
60018;SDS011;45870;42.528;26.740;2023-08-20T06:40:18;5.60;;;4.03;;
60018;SDS011;45870;42.528;26.740;2023-08-20T06:42:44;6.97;;;4.43;;
60018;SDS011;45870;42.528;26.740;2023-08-20T06:45:10;7.95;;;4.20;;
60018;SDS011;45870;42.528;26.740;2023-08-20T06:47:37;6.53;;;4.32;;
60018;SDS011;45870;42.528;26.740;2023-08-20T06:50:04;12.82;;;4.65;;
60018;SDS011;45870;42.528;26.740;2023-08-20T06:52:30;7.85;;;4.57;;
60018;SDS011;45870;42.528;26.740;2023-08-20T06:54:55;4.97;;;4.00;;
60018;SDS011;45870;42.528;26.740;2023-08-20T06:57:21;5.15;;;4.20;;
60018;SDS011;45870;42.528;26.740;2023-08-20T06:59:47;6.93;;;4.57;;
60018;SDS011;45870;42.528;26.740;2023-08-20T07:02:13;7.30;;;4.60;;
60018;SDS011;45870;42.528;26.740;2023-08-20T07:04:39;8.95;;;4.65;;
60018;SDS011;45870;42.528;26.740;2023-08-20T07:07:04;6.50;;;4.30;;
60018;SDS011;45870;42.528;26.740;2023-08-20T07:09:30;5.05;;;4.07;;
60018;SDS011;45870;42.528;26.740;2023-08-20T07:11:56;9.50;;;4.32;;
60018;SDS011;45870;42.528;26.740;2023-08-20T07:14:22;5.28;;;3.75;;
60018;SDS011;45870;42.528;26.740;2023-08-20T07:16:47;6.18;;;3.70;;
60018;SDS011;45870;42.528;26.740;2023-08-20T07:19:13;5.20;;;3.85;;
60018;SDS011;45870;42.528;26.740;2023-08-20T07:21:38;9.13;;;3.83;;
60018;SDS011;45870;42.528;26.740;2023-08-20T07:24:07;8.93;;;3.92;;
60018;SDS011;45870;42.528;26.740;2023-08-20T07:26:33;5.35;;;4.20;;
60018;SDS011;45870;42.528;26.740;2023-08-20T07:28:59;5.75;;;3.80;;
60018;SDS011;45870;42.528;26.740;2023-08-20T07:31:31;5.13;;;3.70;;
60018;SDS011;45870;42.528;26.740;2023-08-20T07:33:58;6.25;;;4.13;;
60018;SDS011;45870;42.528;26.740;2023-08-20T07:36:25;5.90;;;4.20;;
60018;SDS011;45870;42.528;26.740;2023-08-20T07:38:52;4.32;;;3.75;;
60018;SDS011;45870;42.528;26.740;2023-08-20T07:41:19;4.18;;;3.78;;
60018;SDS011;45870;42.528;26.740;2023-08-20T07:43:46;5.97;;;3.67;;
60018;SDS011;45870;42.528;26.740;2023-08-20T07:46:12;6.78;;;3.83;;
60018;SDS011;45870;42.528;26.740;2023-08-20T07:48:38;6.53;;;4.00;;
60018;SDS011;45870;42.528;26.740;2023-08-20T07:51:04;6.82;;;3.88;;
60018;SDS011;45870;42.528;26.740;2023-08-20T07:53:30;5.22;;;3.90;;
60018;SDS011;45870;42.528;26.740;2023-08-20T07:55:57;4.97;;;4.22;;
60018;SDS011;45870;42.528;26.740;2023-08-20T07:58:25;5.50;;;4.03;;
60018;SDS011;45870;42.528;26.740;2023-08-20T08:00:51;10.02;;;3.83;;
60018;SDS011;45870;42.528;26.740;2023-08-20T08:03:17;5.78;;;3.90;;
60018;SDS011;45870;42.528;26.740;2023-08-20T08:05:46;7.70;;;4.40;;
60018;SDS011;45870;42.528;26.740;2023-08-20T08:08:13;7.00;;;3.88;;
60018;SDS011;45870;42.528;26.740;2023-08-20T08:10:40;5.82;;;3.90;;
60018;SDS011;45870;42.528;26.740;2023-08-20T08:13:06;6.20;;;4.07;;
60018;SDS011;45870;42.528;26.740;2023-08-20T08:15:32;7.18;;;3.90;;
60018;SDS011;45870;42.528;26.740;2023-08-20T08:17:58;12.20;;;3.97;;
60018;SDS011;45870;42.528;26.740;2023-08-20T08:20:24;5.10;;;4.03;;
60018;SDS011;45870;42.528;26.740;2023-08-20T08:22:49;5.32;;;3.80;;
60018;SDS011;45870;42.528;26.740;2023-08-20T08:25:15;6.78;;;3.80;;
60018;SDS011;45870;42.528;26.740;2023-08-20T08:27:41;4.72;;;4.10;;
60018;SDS011;45870;42.528;26.740;2023-08-20T08:30:08;5.53;;;4.20;;
60018;SDS011;45870;42.528;26.740;2023-08-20T08:32:33;6.53;;;3.78;;
60018;SDS011;45870;42.528;26.740;2023-08-20T08:34:59;5.18;;;3.42;;
60018;SDS011;45870;42.528;26.740;2023-08-20T08:37:25;8.27;;;4.22;;
60018;SDS011;45870;42.528;26.740;2023-08-20T08:39:50;5.25;;;3.75;;
60018;SDS011;45870;42.528;26.740;2023-08-20T08:42:16;4.68;;;3.55;;
60018;SDS011;45870;42.528;26.740;2023-08-20T08:44:47;5.88;;;3.80;;
60018;SDS011;45870;42.528;26.740;2023-08-20T08:47:16;5.45;;;3.55;;
60018;SDS011;45870;42.528;26.740;2023-08-20T08:49:43;7.60;;;3.70;;
60018;SDS011;45870;42.528;26.740;2023-08-20T08:52:11;5.25;;;3.50;;
60018;SDS011;45870;42.528;26.740;2023-08-20T08:54:38;7.05;;;4.40;;
60018;SDS011;45870;42.528;26.740;2023-08-20T08:57:04;7.38;;;3.72;;
60018;SDS011;45870;42.528;26.740;2023-08-20T08:59:30;4.90;;;3.47;;
60018;SDS011;45870;42.528;26.740;2023-08-20T09:01:56;7.15;;;3.83;;
60018;SDS011;45870;42.528;26.740;2023-08-20T09:04:22;5.60;;;3.90;;
60018;SDS011;45870;42.528;26.740;2023-08-20T09:06:50;5.95;;;3.78;;
60018;SDS011;45870;42.528;26.740;2023-08-20T09:09:18;5.28;;;3.67;;
60018;SDS011;45870;42.528;26.740;2023-08-20T09:11:46;5.15;;;3.60;;
60018;SDS011;45870;42.528;26.740;2023-08-20T09:14:23;6.55;;;3.35;;
60018;SDS011;45870;42.528;26.740;2023-08-20T09:16:54;4.50;;;3.70;;
60018;SDS011;45870;42.528;26.740;2023-08-20T09:19:23;4.70;;;3.47;;
60018;SDS011;45870;42.528;26.740;2023-08-20T09:21:49;7.95;;;4.05;;
60018;SDS011;45870;42.528;26.740;2023-08-20T09:24:26;5.90;;;3.58;;
60018;SDS011;45870;42.528;26.740;2023-08-20T09:27:08;5.82;;;3.70;;
60018;SDS011;45870;42.528;26.740;2023-08-20T09:29:43;8.57;;;3.83;;
60018;SDS011;45870;42.528;26.740;2023-08-20T09:32:26;5.32;;;3.67;;
60018;SDS011;45870;42.528;26.740;2023-08-20T09:34:54;5.97;;;3.83;;
60018;SDS011;45870;42.528;26.740;2023-08-20T09:37:22;6.22;;;4.20;;
60018;SDS011;45870;42.528;26.740;2023-08-20T09:39:48;5.13;;;3.88;;
60018;SDS011;45870;42.528;26.740;2023-08-20T09:42:16;8.63;;;4.03;;
60018;SDS011;45870;42.528;26.740;2023-08-20T09:44:51;9.32;;;3.85;;
60018;SDS011;45870;42.528;26.740;2023-08-20T09:47:19;5.80;;;4.10;;
60018;SDS011;45870;42.528;26.740;2023-08-20T09:49:49;7.85;;;4.00;;
60018;SDS011;45870;42.528;26.740;2023-08-20T09:52:35;8.00;;;3.88;;
60018;SDS011;45870;42.528;26.740;2023-08-20T09:55:08;4.40;;;3.70;;
60018;SDS011;45870;42.528;26.740;2023-08-20T09:57:38;7.63;;;4.15;;
60018;SDS011;45870;42.528;26.740;2023-08-20T10:00:06;5.85;;;4.18;;
60018;SDS011;45870;42.528;26.740;2023-08-20T10:02:39;5.32;;;4.38;;
60018;SDS011;45870;42.528;26.740;2023-08-20T10:05:06;7.95;;;4.28;;
60018;SDS011;45870;42.528;26.740;2023-08-20T10:07:33;6.22;;;4.55;;
60018;SDS011;45870;42.528;26.740;2023-08-20T10:10:00;6.45;;;4.63;;
60018;SDS011;45870;42.528;26.740;2023-08-20T10:12:28;6.65;;;5.22;;
60018;SDS011;45870;42.528;26.740;2023-08-20T10:14:55;10.05;;;5.90;;
60018;SDS011;45870;42.528;26.740;2023-08-20T10:17:22;9.82;;;4.65;;
60018;SDS011;45870;42.528;26.740;2023-08-20T10:19:48;6.88;;;4.85;;
60018;SDS011;45870;42.528;26.740;2023-08-20T10:22:15;7.57;;;4.78;;
60018;SDS011;45870;42.528;26.740;2023-08-20T10:24:50;5.65;;;4.18;;
60018;SDS011;45870;42.528;26.740;2023-08-20T10:27:25;6.85;;;4.53;;
60018;SDS011;45870;42.528;26.740;2023-08-20T10:29:52;5.50;;;4.32;;
60018;SDS011;45870;42.528;26.740;2023-08-20T10:32:19;5.85;;;4.65;;
60018;SDS011;45870;42.528;26.740;2023-08-20T10:34:54;10.10;;;4.80;;
60018;SDS011;45870;42.528;26.740;2023-08-20T10:37:26;6.10;;;4.40;;
60018;SDS011;45870;42.528;26.740;2023-08-20T10:39:54;9.90;;;4.65;;
60018;SDS011;45870;42.528;26.740;2023-08-20T10:42:22;7.97;;;4.40;;
60018;SDS011;45870;42.528;26.740;2023-08-20T10:45:07;7.57;;;4.05;;
60018;SDS011;45870;42.528;26.740;2023-08-20T10:47:44;5.28;;;4.28;;
60018;SDS011;45870;42.528;26.740;2023-08-20T10:50:17;6.00;;;4.10;;
60018;SDS011;45870;42.528;26.740;2023-08-20T10:52:54;9.85;;;4.40;;
60018;SDS011;45870;42.528;26.740;2023-08-20T10:55:24;9.75;;;4.15;;
60018;SDS011;45870;42.528;26.740;2023-08-20T10:57:57;8.80;;;3.95;;
60018;SDS011;45870;42.528;26.740;2023-08-20T11:00:27;5.15;;;3.92;;
60018;SDS011;45870;42.528;26.740;2023-08-20T11:02:53;4.72;;;4.28;;
60018;SDS011;45870;42.528;26.740;2023-08-20T11:05:20;5.05;;;4.38;;
60018;SDS011;45870;42.528;26.740;2023-08-20T11:07:51;5.18;;;3.92;;
60018;SDS011;45870;42.528;26.740;2023-08-20T11:10:22;6.35;;;3.95;;
60018;SDS011;45870;42.528;26.740;2023-08-20T11:12:49;9.55;;;4.47;;
60018;SDS011;45870;42.528;26.740;2023-08-20T11:15:15;6.00;;;3.85;;
60018;SDS011;45870;42.528;26.740;2023-08-20T11:17:47;4.82;;;4.03;;
60018;SDS011;45870;42.528;26.740;2023-08-20T11:20:14;4.68;;;4.07;;
60018;SDS011;45870;42.528;26.740;2023-08-20T11:22:40;6.00;;;4.30;;
60018;SDS011;45870;42.528;26.740;2023-08-20T11:25:09;6.25;;;4.15;;
60018;SDS011;45870;42.528;26.740;2023-08-20T11:30:06;7.05;;;4.30;;
60018;SDS011;45870;42.528;26.740;2023-08-20T11:32:42;7.25;;;4.38;;
60018;SDS011;45870;42.528;26.740;2023-08-20T11:35:16;5.85;;;4.57;;
60018;SDS011;45870;42.528;26.740;2023-08-20T11:37:42;6.18;;;4.30;;
60018;SDS011;45870;42.528;26.740;2023-08-20T11:40:08;8.63;;;4.20;;
60018;SDS011;45870;42.528;26.740;2023-08-20T11:42:34;8.98;;;4.40;;
60018;SDS011;45870;42.528;26.740;2023-08-20T11:45:04;6.68;;;4.00;;
60018;SDS011;45870;42.528;26.740;2023-08-20T11:47:38;5.18;;;4.32;;
60018;SDS011;45870;42.528;26.740;2023-08-20T11:50:05;6.43;;;4.47;;
60018;SDS011;45870;42.528;26.740;2023-08-20T11:52:32;6.00;;;4.53;;
60018;SDS011;45870;42.528;26.740;2023-08-20T11:54:58;6.90;;;3.90;;
60018;SDS011;45870;42.528;26.740;2023-08-20T11:57:26;5.93;;;3.97;;
60018;SDS011;45870;42.528;26.740;2023-08-20T11:59:53;4.13;;;3.70;;
60018;SDS011;45870;42.528;26.740;2023-08-20T12:02:26;6.43;;;3.78;;
60018;SDS011;45870;42.528;26.740;2023-08-20T12:04:54;5.78;;;4.30;;
60018;SDS011;45870;42.528;26.740;2023-08-20T12:07:26;9.02;;;4.43;;
60018;SDS011;45870;42.528;26.740;2023-08-20T12:09:53;5.68;;;4.28;;
60018;SDS011;45870;42.528;26.740;2023-08-20T12:12:20;6.22;;;4.00;;
60018;SDS011;45870;42.528;26.740;2023-08-20T12:14:47;7.55;;;3.90;;
60018;SDS011;45870;42.528;26.740;2023-08-20T12:17:16;7.80;;;4.13;;
60018;SDS011;45870;42.528;26.740;2023-08-20T12:19:42;7.60;;;4.28;;
60018;SDS011;45870;42.528;26.740;2023-08-20T12:22:08;7.20;;;4.45;;
60018;SDS011;45870;42.528;26.740;2023-08-20T12:24:33;7.03;;;4.28;;
60018;SDS011;45870;42.528;26.740;2023-08-20T12:26:59;5.80;;;4.38;;
60018;SDS011;45870;42.528;26.740;2023-08-20T12:29:25;6.50;;;4.35;;
60018;SDS011;45870;42.528;26.740;2023-08-20T12:31:51;4.72;;;4.15;;
60018;SDS011;45870;42.528;26.740;2023-08-20T12:34:16;8.07;;;4.50;;
60018;SDS011;45870;42.528;26.740;2023-08-20T12:36:42;6.32;;;3.95;;
60018;SDS011;45870;42.528;26.740;2023-08-20T12:39:08;5.45;;;4.18;;
60018;SDS011;45870;42.528;26.740;2023-08-20T12:41:34;5.43;;;4.35;;
60018;SDS011;45870;42.528;26.740;2023-08-20T12:44:02;6.05;;;4.07;;
60018;SDS011;45870;42.528;26.740;2023-08-20T12:46:28;5.68;;;4.22;;
60018;SDS011;45870;42.528;26.740;2023-08-20T12:48:54;4.93;;;4.22;;
60018;SDS011;45870;42.528;26.740;2023-08-20T12:51:19;5.18;;;4.05;;
60018;SDS011;45870;42.528;26.740;2023-08-20T12:53:45;7.53;;;4.60;;
60018;SDS011;45870;42.528;26.740;2023-08-20T12:56:11;7.38;;;4.30;;
60018;SDS011;45870;42.528;26.740;2023-08-20T12:58:37;7.75;;;4.40;;
60018;SDS011;45870;42.528;26.740;2023-08-20T13:01:02;5.97;;;4.03;;
60018;SDS011;45870;42.528;26.740;2023-08-20T13:03:28;6.68;;;4.30;;
60018;SDS011;45870;42.528;26.740;2023-08-20T13:05:54;4.38;;;3.97;;
60018;SDS011;45870;42.528;26.740;2023-08-20T13:08:24;9.38;;;4.07;;
60018;SDS011;45870;42.528;26.740;2023-08-20T13:10:52;4.70;;;3.60;;
60018;SDS011;45870;42.528;26.740;2023-08-20T13:13:20;5.97;;;4.22;;
60018;SDS011;45870;42.528;26.740;2023-08-20T13:15:47;4.50;;;4.10;;
60018;SDS011;45870;42.528;26.740;2023-08-20T13:18:14;8.13;;;4.63;;
60018;SDS011;45870;42.528;26.740;2023-08-20T13:20:40;6.43;;;4.15;;
60018;SDS011;45870;42.528;26.740;2023-08-20T13:23:07;4.95;;;3.95;;
60018;SDS011;45870;42.528;26.740;2023-08-20T13:25:33;6.07;;;3.80;;
60018;SDS011;45870;42.528;26.740;2023-08-20T13:28:00;5.55;;;3.38;;
60018;SDS011;45870;42.528;26.740;2023-08-20T13:30:26;4.30;;;3.45;;
60018;SDS011;45870;42.528;26.740;2023-08-20T13:32:52;5.05;;;3.30;;
60018;SDS011;45870;42.528;26.740;2023-08-20T13:35:17;4.05;;;3.05;;
60018;SDS011;45870;42.528;26.740;2023-08-20T13:37:43;4.90;;;2.95;;
60018;SDS011;45870;42.528;26.740;2023-08-20T13:40:09;5.75;;;3.17;;
60018;SDS011;45870;42.528;26.740;2023-08-20T13:42:35;2.85;;;2.30;;
60018;SDS011;45870;42.528;26.740;2023-08-20T13:45:01;5.45;;;2.80;;
60018;SDS011;45870;42.528;26.740;2023-08-20T13:47:27;4.97;;;3.13;;
60018;SDS011;45870;42.528;26.740;2023-08-20T13:49:53;3.60;;;2.40;;
60018;SDS011;45870;42.528;26.740;2023-08-20T13:52:19;8.05;;;2.55;;
60018;SDS011;45870;42.528;26.740;2023-08-20T13:54:45;2.65;;;2.22;;
60018;SDS011;45870;42.528;26.740;2023-08-20T13:57:11;3.25;;;2.53;;
60018;SDS011;45870;42.528;26.740;2023-08-20T13:59:36;4.25;;;2.25;;
60018;SDS011;45870;42.528;26.740;2023-08-20T14:02:02;4.00;;;2.63;;
60018;SDS011;45870;42.528;26.740;2023-08-20T14:04:28;3.80;;;2.30;;
60018;SDS011;45870;42.528;26.740;2023-08-20T14:06:53;5.68;;;2.15;;
60018;SDS011;45870;42.528;26.740;2023-08-20T14:09:19;3.75;;;2.28;;
60018;SDS011;45870;42.528;26.740;2023-08-20T14:11:48;2.50;;;2.20;;
60018;SDS011;45870;42.528;26.740;2023-08-20T14:14:14;3.10;;;2.10;;
60018;SDS011;45870;42.528;26.740;2023-08-20T14:16:39;2.85;;;2.42;;
60018;SDS011;45870;42.528;26.740;2023-08-20T14:19:05;2.53;;;1.95;;
60018;SDS011;45870;42.528;26.740;2023-08-20T14:21:31;3.60;;;1.95;;
60018;SDS011;45870;42.528;26.740;2023-08-20T14:23:57;3.30;;;1.98;;
60018;SDS011;45870;42.528;26.740;2023-08-20T14:26:23;4.13;;;1.90;;
60018;SDS011;45870;42.528;26.740;2023-08-20T14:28:49;1.80;;;1.60;;
60018;SDS011;45870;42.528;26.740;2023-08-20T14:31:14;1.50;;;1.40;;
60018;SDS011;45870;42.528;26.740;2023-08-20T14:33:40;2.63;;;1.30;;